sensor_id;sensor_type;location;lat;lon;timestamp;temperature;humidity
41058;DHT22;66768;48.884;2.258;2023-06-26T00:01:10;23.00;94.80
41058;DHT22;66768;48.884;2.258;2023-06-26T00:03:37;23.00;95.20
41058;DHT22;66768;48.884;2.258;2023-06-26T00:06:04;22.90;95.30
41058;DHT22;66768;48.884;2.258;2023-06-26T00:08:30;22.90;95.10
41058;DHT22;66768;48.884;2.258;2023-06-26T00:10:57;22.90;95.20
41058;DHT22;66768;48.884;2.258;2023-06-26T00:13:25;23.00;95.40
41058;DHT22;66768;48.884;2.258;2023-06-26T00:15:52;23.00;95.20
41058;DHT22;66768;48.884;2.258;2023-06-26T00:18:19;22.90;95.10
41058;DHT22;66768;48.884;2.258;2023-06-26T00:20:46;23.00;95.30
41058;DHT22;66768;48.884;2.258;2023-06-26T00:23:13;22.90;95.20
41058;DHT22;66768;48.884;2.258;2023-06-26T00:25:43;22.90;95.10
41058;DHT22;66768;48.884;2.258;2023-06-26T00:28:10;22.80;95.30
41058;DHT22;66768;48.884;2.258;2023-06-26T00:30:38;22.80;95.30
41058;DHT22;66768;48.884;2.258;2023-06-26T00:33:05;22.80;95.40
41058;DHT22;66768;48.884;2.258;2023-06-26T00:35:32;22.70;95.50
41058;DHT22;66768;48.884;2.258;2023-06-26T00:38:00;22.70;95.60
41058;DHT22;66768;48.884;2.258;2023-06-26T00:40:27;22.70;95.60
41058;DHT22;66768;48.884;2.258;2023-06-26T00:42:54;22.60;95.70
41058;DHT22;66768;48.884;2.258;2023-06-26T00:45:21;22.50;95.80
41058;DHT22;66768;48.884;2.258;2023-06-26T00:47:49;22.50;95.80
41058;DHT22;66768;48.884;2.258;2023-06-26T00:50:16;22.50;95.90
41058;DHT22;66768;48.884;2.258;2023-06-26T00:52:43;22.50;95.70
41058;DHT22;66768;48.884;2.258;2023-06-26T00:55:10;22.50;95.60
41058;DHT22;66768;48.884;2.258;2023-06-26T00:57:37;22.50;95.60
41058;DHT22;66768;48.884;2.258;2023-06-26T01:00:05;22.50;95.50
41058;DHT22;66768;48.884;2.258;2023-06-26T01:02:32;22.50;95.20
41058;DHT22;66768;48.884;2.258;2023-06-26T01:05:01;22.40;95.20
41058;DHT22;66768;48.884;2.258;2023-06-26T01:07:32;22.30;95.30
41058;DHT22;66768;48.884;2.258;2023-06-26T01:10:02;22.30;95.30
41058;DHT22;66768;48.884;2.258;2023-06-26T01:12:30;22.20;95.40
41058;DHT22;66768;48.884;2.258;2023-06-26T01:14:58;22.20;95.80
41058;DHT22;66768;48.884;2.258;2023-06-26T01:17:25;22.20;95.40
41058;DHT22;66768;48.884;2.258;2023-06-26T01:19:57;22.10;95.50
41058;DHT22;66768;48.884;2.258;2023-06-26T01:22:31;22.00;95.60
41058;DHT22;66768;48.884;2.258;2023-06-26T01:25:07;22.00;95.70
41058;DHT22;66768;48.884;2.258;2023-06-26T01:27:38;22.00;95.70
41058;DHT22;66768;48.884;2.258;2023-06-26T01:30:07;22.00;95.70
41058;DHT22;66768;48.884;2.258;2023-06-26T01:32:34;22.00;95.80
41058;DHT22;66768;48.884;2.258;2023-06-26T01:35:02;22.00;95.90
41058;DHT22;66768;48.884;2.258;2023-06-26T01:37:29;22.00;95.90
41058;DHT22;66768;48.884;2.258;2023-06-26T01:39:56;21.90;96.00
41058;DHT22;66768;48.884;2.258;2023-06-26T01:42:23;22.00;96.00
41058;DHT22;66768;48.884;2.258;2023-06-26T01:44:51;22.00;96.00
41058;DHT22;66768;48.884;2.258;2023-06-26T01:47:22;21.90;96.20
41058;DHT22;66768;48.884;2.258;2023-06-26T01:49:56;21.80;95.90
41058;DHT22;66768;48.884;2.258;2023-06-26T01:52:29;21.70;96.10
41058;DHT22;66768;48.884;2.258;2023-06-26T01:55:02;21.80;96.20
41058;DHT22;66768;48.884;2.258;2023-06-26T01:57:30;21.80;95.90
41058;DHT22;66768;48.884;2.258;2023-06-26T01:59:59;21.80;95.80
41058;DHT22;66768;48.884;2.258;2023-06-26T02:02:28;21.70;95.70
41058;DHT22;66768;48.884;2.258;2023-06-26T02:04:55;21.70;95.60
41058;DHT22;66768;48.884;2.258;2023-06-26T02:07:22;21.70;95.50
41058;DHT22;66768;48.884;2.258;2023-06-26T02:09:49;21.70;95.40
41058;DHT22;66768;48.884;2.258;2023-06-26T02:12:16;21.70;95.40
41058;DHT22;66768;48.884;2.258;2023-06-26T02:14:43;21.60;95.20
41058;DHT22;66768;48.884;2.258;2023-06-26T02:17:11;21.50;95.30
41058;DHT22;66768;48.884;2.258;2023-06-26T02:19:38;21.50;95.30
41058;DHT22;66768;48.884;2.258;2023-06-26T02:22:13;21.40;95.30
41058;DHT22;66768;48.884;2.258;2023-06-26T02:24:39;21.40;95.40
41058;DHT22;66768;48.884;2.258;2023-06-26T02:27:06;21.40;95.20
41058;DHT22;66768;48.884;2.258;2023-06-26T02:29:33;21.30;95.00
41058;DHT22;66768;48.884;2.258;2023-06-26T02:32:00;21.30;95.20
41058;DHT22;66768;48.884;2.258;2023-06-26T02:34:29;21.30;95.20
41058;DHT22;66768;48.884;2.258;2023-06-26T02:36:56;21.30;95.20
41058;DHT22;66768;48.884;2.258;2023-06-26T02:39:24;21.30;95.20
41058;DHT22;66768;48.884;2.258;2023-06-26T02:41:51;21.30;95.20
41058;DHT22;66768;48.884;2.258;2023-06-26T02:44:18;21.30;95.20
41058;DHT22;66768;48.884;2.258;2023-06-26T02:46:45;21.30;95.20
41058;DHT22;66768;48.884;2.258;2023-06-26T02:49:11;21.30;95.20
41058;DHT22;66768;48.884;2.258;2023-06-26T02:51:40;21.30;95.50
41058;DHT22;66768;48.884;2.258;2023-06-26T02:54:06;21.30;95.20
41058;DHT22;66768;48.884;2.258;2023-06-26T02:56:33;21.20;95.10
41058;DHT22;66768;48.884;2.258;2023-06-26T02:59:00;21.10;95.20
41058;DHT22;66768;48.884;2.258;2023-06-26T03:01:27;21.10;95.40
41058;DHT22;66768;48.884;2.258;2023-06-26T03:03:55;21.00;95.40
41058;DHT22;66768;48.884;2.258;2023-06-26T03:06:22;21.00;95.50
41058;DHT22;66768;48.884;2.258;2023-06-26T03:08:50;21.10;95.80
41058;DHT22;66768;48.884;2.258;2023-06-26T03:11:17;21.00;95.20
41058;DHT22;66768;48.884;2.258;2023-06-26T03:13:44;21.00;95.30
41058;DHT22;66768;48.884;2.258;2023-06-26T03:16:11;21.00;95.30
41058;DHT22;66768;48.884;2.258;2023-06-26T03:18:38;20.90;95.40
41058;DHT22;66768;48.884;2.258;2023-06-26T03:21:04;21.00;95.60
41058;DHT22;66768;48.884;2.258;2023-06-26T03:23:31;21.00;95.70
41058;DHT22;66768;48.884;2.258;2023-06-26T03:25:59;20.90;95.80
41058;DHT22;66768;48.884;2.258;2023-06-26T03:28:26;20.80;95.90
41058;DHT22;66768;48.884;2.258;2023-06-26T03:30:53;20.80;95.90
41058;DHT22;66768;48.884;2.258;2023-06-26T03:33:20;20.80;96.10
41058;DHT22;66768;48.884;2.258;2023-06-26T03:35:47;20.80;96.20
41058;DHT22;66768;48.884;2.258;2023-06-26T03:38:14;20.70;96.20
41058;DHT22;66768;48.884;2.258;2023-06-26T03:40:40;20.70;96.30
41058;DHT22;66768;48.884;2.258;2023-06-26T03:43:09;20.60;96.40
41058;DHT22;66768;48.884;2.258;2023-06-26T03:45:36;20.60;96.40
41058;DHT22;66768;48.884;2.258;2023-06-26T03:48:03;20.70;96.40
41058;DHT22;66768;48.884;2.258;2023-06-26T03:50:30;20.60;96.60
41058;DHT22;66768;48.884;2.258;2023-06-26T03:52:58;20.60;96.70
41058;DHT22;66768;48.884;2.258;2023-06-26T03:55:25;20.50;96.70
41058;DHT22;66768;48.884;2.258;2023-06-26T03:57:52;20.50;96.70
41058;DHT22;66768;48.884;2.258;2023-06-26T04:00:21;20.40;96.70
41058;DHT22;66768;48.884;2.258;2023-06-26T04:02:47;20.50;96.80
41058;DHT22;66768;48.884;2.258;2023-06-26T04:05:16;20.50;96.70
41058;DHT22;66768;48.884;2.258;2023-06-26T04:07:43;20.50;96.70
41058;DHT22;66768;48.884;2.258;2023-06-26T04:10:10;20.60;96.80
41058;DHT22;66768;48.884;2.258;2023-06-26T04:12:37;20.50;96.80
41058;DHT22;66768;48.884;2.258;2023-06-26T04:15:05;20.40;97.00
41058;DHT22;66768;48.884;2.258;2023-06-26T04:17:33;20.40;97.10
41058;DHT22;66768;48.884;2.258;2023-06-26T04:20:00;20.40;97.10
41058;DHT22;66768;48.884;2.258;2023-06-26T04:22:30;20.30;97.30
41058;DHT22;66768;48.884;2.258;2023-06-26T04:24:57;20.30;97.30
41058;DHT22;66768;48.884;2.258;2023-06-26T04:27:24;20.40;97.40
41058;DHT22;66768;48.884;2.258;2023-06-26T04:29:50;20.30;97.40
41058;DHT22;66768;48.884;2.258;2023-06-26T04:32:17;20.40;97.40
41058;DHT22;66768;48.884;2.258;2023-06-26T04:34:45;20.30;97.40
41058;DHT22;66768;48.884;2.258;2023-06-26T04:37:13;20.30;97.40
41058;DHT22;66768;48.884;2.258;2023-06-26T04:39:41;20.40;97.50
41058;DHT22;66768;48.884;2.258;2023-06-26T04:42:09;20.30;97.50
41058;DHT22;66768;48.884;2.258;2023-06-26T04:44:37;20.30;97.40
41058;DHT22;66768;48.884;2.258;2023-06-26T04:47:06;20.30;97.30
41058;DHT22;66768;48.884;2.258;2023-06-26T04:49:33;20.40;97.40
41058;DHT22;66768;48.884;2.258;2023-06-26T04:52:01;20.50;97.40
41058;DHT22;66768;48.884;2.258;2023-06-26T04:54:28;20.50;97.40
41058;DHT22;66768;48.884;2.258;2023-06-26T04:56:55;20.40;97.20
41058;DHT22;66768;48.884;2.258;2023-06-26T04:59:22;20.50;97.20
41058;DHT22;66768;48.884;2.258;2023-06-26T05:01:49;20.50;97.10
41058;DHT22;66768;48.884;2.258;2023-06-26T05:04:16;20.50;97.40
41058;DHT22;66768;48.884;2.258;2023-06-26T05:06:43;20.50;97.10
41058;DHT22;66768;48.884;2.258;2023-06-26T05:09:11;20.40;97.20
41058;DHT22;66768;48.884;2.258;2023-06-26T05:11:38;20.30;97.30
41058;DHT22;66768;48.884;2.258;2023-06-26T05:14:05;20.30;97.50
41058;DHT22;66768;48.884;2.258;2023-06-26T05:16:33;20.30;97.50
41058;DHT22;66768;48.884;2.258;2023-06-26T05:19:00;20.30;97.50
41058;DHT22;66768;48.884;2.258;2023-06-26T05:21:28;20.40;97.50
41058;DHT22;66768;48.884;2.258;2023-06-26T05:23:56;20.40;97.50
41058;DHT22;66768;48.884;2.258;2023-06-26T05:26:26;20.40;97.50
41058;DHT22;66768;48.884;2.258;2023-06-26T05:28:54;20.50;97.40
41058;DHT22;66768;48.884;2.258;2023-06-26T05:31:21;20.60;97.20
41058;DHT22;66768;48.884;2.258;2023-06-26T05:33:49;20.60;97.10
41058;DHT22;66768;48.884;2.258;2023-06-26T05:36:16;20.70;97.30
41058;DHT22;66768;48.884;2.258;2023-06-26T05:38:45;20.70;96.90
41058;DHT22;66768;48.884;2.258;2023-06-26T05:41:14;20.80;96.80
41058;DHT22;66768;48.884;2.258;2023-06-26T05:43:42;20.80;96.70
41058;DHT22;66768;48.884;2.258;2023-06-26T05:46:09;20.80;96.50
41058;DHT22;66768;48.884;2.258;2023-06-26T05:48:36;20.80;96.60
41058;DHT22;66768;48.884;2.258;2023-06-26T05:51:03;20.80;96.60
41058;DHT22;66768;48.884;2.258;2023-06-26T05:53:31;20.80;96.40
41058;DHT22;66768;48.884;2.258;2023-06-26T05:55:58;20.90;96.40
41058;DHT22;66768;48.884;2.258;2023-06-26T05:58:26;20.90;96.20
41058;DHT22;66768;48.884;2.258;2023-06-26T06:00:55;21.00;96.20
41058;DHT22;66768;48.884;2.258;2023-06-26T06:03:22;21.00;96.00
41058;DHT22;66768;48.884;2.258;2023-06-26T06:05:50;21.00;96.00
41058;DHT22;66768;48.884;2.258;2023-06-26T06:08:17;21.10;96.00
41058;DHT22;66768;48.884;2.258;2023-06-26T06:10:44;21.10;95.90
41058;DHT22;66768;48.884;2.258;2023-06-26T06:13:10;21.10;95.80
41058;DHT22;66768;48.884;2.258;2023-06-26T06:15:37;21.10;95.70
41058;DHT22;66768;48.884;2.258;2023-06-26T06:18:06;21.10;95.70
41058;DHT22;66768;48.884;2.258;2023-06-26T06:20:32;21.20;95.60
41058;DHT22;66768;48.884;2.258;2023-06-26T06:22:59;21.30;95.50
41058;DHT22;66768;48.884;2.258;2023-06-26T06:25:26;21.40;95.70
41058;DHT22;66768;48.884;2.258;2023-06-26T06:27:53;21.40;95.40
41058;DHT22;66768;48.884;2.258;2023-06-26T06:30:20;21.20;95.30
41058;DHT22;66768;48.884;2.258;2023-06-26T06:32:47;21.40;96.00
41058;DHT22;66768;48.884;2.258;2023-06-26T06:35:18;21.40;95.30
41058;DHT22;66768;48.884;2.258;2023-06-26T06:37:45;21.50;95.10
41058;DHT22;66768;48.884;2.258;2023-06-26T06:40:12;21.50;94.70
41058;DHT22;66768;48.884;2.258;2023-06-26T06:42:39;21.50;94.70
41058;DHT22;66768;48.884;2.258;2023-06-26T06:45:07;21.70;94.70
41058;DHT22;66768;48.884;2.258;2023-06-26T06:47:34;21.80;94.70
41058;DHT22;66768;48.884;2.258;2023-06-26T06:50:02;21.70;94.40
41058;DHT22;66768;48.884;2.258;2023-06-26T06:52:35;21.90;94.50
41058;DHT22;66768;48.884;2.258;2023-06-26T06:55:03;22.00;94.30
41058;DHT22;66768;48.884;2.258;2023-06-26T06:57:32;22.20;94.10
41058;DHT22;66768;48.884;2.258;2023-06-26T07:00:02;22.30;93.80
41058;DHT22;66768;48.884;2.258;2023-06-26T07:02:30;22.30;93.70
41058;DHT22;66768;48.884;2.258;2023-06-26T07:04:57;22.40;93.30
41058;DHT22;66768;48.884;2.258;2023-06-26T07:07:28;22.40;93.40
41058;DHT22;66768;48.884;2.258;2023-06-26T07:09:57;22.50;93.30
41058;DHT22;66768;48.884;2.258;2023-06-26T07:12:24;22.30;93.10
41058;DHT22;66768;48.884;2.258;2023-06-26T07:14:51;22.10;93.40
41058;DHT22;66768;48.884;2.258;2023-06-26T07:17:19;22.10;93.40
41058;DHT22;66768;48.884;2.258;2023-06-26T07:19:46;22.00;93.30
41058;DHT22;66768;48.884;2.258;2023-06-26T07:22:13;22.20;93.50
41058;DHT22;66768;48.884;2.258;2023-06-26T07:24:40;22.30;93.10
41058;DHT22;66768;48.884;2.258;2023-06-26T07:27:08;22.50;92.90
41058;DHT22;66768;48.884;2.258;2023-06-26T07:29:35;22.70;92.60
41058;DHT22;66768;48.884;2.258;2023-06-26T07:32:02;22.90;92.20
41058;DHT22;66768;48.884;2.258;2023-06-26T07:34:28;22.80;92.10
41058;DHT22;66768;48.884;2.258;2023-06-26T07:36:55;22.80;92.30
41058;DHT22;66768;48.884;2.258;2023-06-26T07:39:22;22.80;92.10
41058;DHT22;66768;48.884;2.258;2023-06-26T07:41:49;22.70;92.10
41058;DHT22;66768;48.884;2.258;2023-06-26T07:44:17;22.70;91.80
41058;DHT22;66768;48.884;2.258;2023-06-26T07:46:44;22.80;92.00
41058;DHT22;66768;48.884;2.258;2023-06-26T07:49:11;22.90;92.10
41058;DHT22;66768;48.884;2.258;2023-06-26T07:51:38;23.10;91.60
41058;DHT22;66768;48.884;2.258;2023-06-26T07:54:05;23.30;91.30
41058;DHT22;66768;48.884;2.258;2023-06-26T07:56:35;23.50;91.10
41058;DHT22;66768;48.884;2.258;2023-06-26T07:59:20;23.50;91.20
41058;DHT22;66768;48.884;2.258;2023-06-26T08:01:47;23.50;91.10
41058;DHT22;66768;48.884;2.258;2023-06-26T08:04:14;23.50;91.10
41058;DHT22;66768;48.884;2.258;2023-06-26T08:06:41;23.40;90.80
41058;DHT22;66768;48.884;2.258;2023-06-26T08:09:08;23.60;90.50
41058;DHT22;66768;48.884;2.258;2023-06-26T08:11:35;23.90;90.40
41058;DHT22;66768;48.884;2.258;2023-06-26T08:14:02;23.90;90.20
41058;DHT22;66768;48.884;2.258;2023-06-26T08:16:30;24.00;89.30
41058;DHT22;66768;48.884;2.258;2023-06-26T08:18:57;24.20;88.80
41058;DHT22;66768;48.884;2.258;2023-06-26T08:21:24;23.90;89.30
41058;DHT22;66768;48.884;2.258;2023-06-26T08:23:51;23.80;89.10
41058;DHT22;66768;48.884;2.258;2023-06-26T08:26:18;23.50;89.80
41058;DHT22;66768;48.884;2.258;2023-06-26T08:28:44;23.60;88.10
41058;DHT22;66768;48.884;2.258;2023-06-26T08:31:11;23.90;88.70
41058;DHT22;66768;48.884;2.258;2023-06-26T08:33:42;24.20;87.10
41058;DHT22;66768;48.884;2.258;2023-06-26T08:36:09;24.50;87.00
41058;DHT22;66768;48.884;2.258;2023-06-26T08:38:36;24.80;85.60
41058;DHT22;66768;48.884;2.258;2023-06-26T08:41:06;25.00;84.10
41058;DHT22;66768;48.884;2.258;2023-06-26T08:43:33;25.00;84.40
41058;DHT22;66768;48.884;2.258;2023-06-26T08:46:00;24.80;83.10
41058;DHT22;66768;48.884;2.258;2023-06-26T08:48:29;25.00;83.20
41058;DHT22;66768;48.884;2.258;2023-06-26T08:51:01;25.20;83.00
41058;DHT22;66768;48.884;2.258;2023-06-26T08:53:36;25.30;82.70
41058;DHT22;66768;48.884;2.258;2023-06-26T08:56:07;25.10;82.90
41058;DHT22;66768;48.884;2.258;2023-06-26T08:58:35;24.90;84.00
41058;DHT22;66768;48.884;2.258;2023-06-26T09:01:04;24.80;85.20
41058;DHT22;66768;48.884;2.258;2023-06-26T09:03:31;24.60;84.00
41058;DHT22;66768;48.884;2.258;2023-06-26T09:06:00;24.70;84.30
41058;DHT22;66768;48.884;2.258;2023-06-26T09:08:27;24.70;83.70
41058;DHT22;66768;48.884;2.258;2023-06-26T09:10:55;24.70;82.40
41058;DHT22;66768;48.884;2.258;2023-06-26T09:13:22;24.70;83.20
41058;DHT22;66768;48.884;2.258;2023-06-26T09:15:49;24.50;82.40
41058;DHT22;66768;48.884;2.258;2023-06-26T09:18:21;24.50;83.00
41058;DHT22;66768;48.884;2.258;2023-06-26T09:20:48;24.30;82.80
41058;DHT22;66768;48.884;2.258;2023-06-26T09:23:16;24.40;83.50
41058;DHT22;66768;48.884;2.258;2023-06-26T09:25:43;24.60;82.50
41058;DHT22;66768;48.884;2.258;2023-06-26T09:28:11;25.30;80.20
41058;DHT22;66768;48.884;2.258;2023-06-26T09:30:38;25.40;78.50
41058;DHT22;66768;48.884;2.258;2023-06-26T09:33:14;24.90;79.10
41058;DHT22;66768;48.884;2.258;2023-06-26T09:35:42;24.80;79.40
41058;DHT22;66768;48.884;2.258;2023-06-26T09:38:09;24.80;79.30
41058;DHT22;66768;48.884;2.258;2023-06-26T09:40:37;24.70;78.50
41058;DHT22;66768;48.884;2.258;2023-06-26T09:43:04;24.90;78.50
41058;DHT22;66768;48.884;2.258;2023-06-26T09:45:32;24.90;77.70
41058;DHT22;66768;48.884;2.258;2023-06-26T09:48:02;24.90;77.90
41058;DHT22;66768;48.884;2.258;2023-06-26T09:50:30;25.10;77.30
41058;DHT22;66768;48.884;2.258;2023-06-26T09:53:07;25.20;77.70
41058;DHT22;66768;48.884;2.258;2023-06-26T09:55:34;25.40;78.00
41058;DHT22;66768;48.884;2.258;2023-06-26T09:58:03;25.80;77.50
41058;DHT22;66768;48.884;2.258;2023-06-26T10:00:31;27.10;75.40
41058;DHT22;66768;48.884;2.258;2023-06-26T10:02:58;28.00;72.20
41058;DHT22;66768;48.884;2.258;2023-06-26T10:05:25;27.00;73.20
41058;DHT22;66768;48.884;2.258;2023-06-26T10:07:52;27.50;74.00
41058;DHT22;66768;48.884;2.258;2023-06-26T10:10:21;27.40;73.40
41058;DHT22;66768;48.884;2.258;2023-06-26T10:12:54;26.60;73.60
41058;DHT22;66768;48.884;2.258;2023-06-26T10:15:23;26.50;74.20
41058;DHT22;66768;48.884;2.258;2023-06-26T10:17:52;26.20;74.60
41058;DHT22;66768;48.884;2.258;2023-06-26T10:20:24;26.30;75.50
41058;DHT22;66768;48.884;2.258;2023-06-26T10:22:51;26.40;76.30
41058;DHT22;66768;48.884;2.258;2023-06-26T10:25:24;26.20;75.00
41058;DHT22;66768;48.884;2.258;2023-06-26T10:27:54;25.80;74.50
41058;DHT22;66768;48.884;2.258;2023-06-26T10:30:26;25.60;74.80
41058;DHT22;66768;48.884;2.258;2023-06-26T10:32:55;25.60;76.60
41058;DHT22;66768;48.884;2.258;2023-06-26T10:35:23;25.60;76.20
41058;DHT22;66768;48.884;2.258;2023-06-26T10:37:51;25.20;75.70
41058;DHT22;66768;48.884;2.258;2023-06-26T10:40:22;25.00;76.20
41058;DHT22;66768;48.884;2.258;2023-06-26T10:42:49;24.80;75.20
41058;DHT22;66768;48.884;2.258;2023-06-26T10:45:17;24.80;75.90
41058;DHT22;66768;48.884;2.258;2023-06-26T10:47:48;24.90;76.50
41058;DHT22;66768;48.884;2.258;2023-06-26T10:50:23;25.00;76.50
41058;DHT22;66768;48.884;2.258;2023-06-26T10:53:08;24.90;75.00
41058;DHT22;66768;48.884;2.258;2023-06-26T10:55:35;24.90;75.00
41058;DHT22;66768;48.884;2.258;2023-06-26T10:58:03;25.00;75.80
41058;DHT22;66768;48.884;2.258;2023-06-26T11:00:30;25.00;75.70
41058;DHT22;66768;48.884;2.258;2023-06-26T11:02:58;25.10;75.60
41058;DHT22;66768;48.884;2.258;2023-06-26T11:05:27;25.00;74.10
41058;DHT22;66768;48.884;2.258;2023-06-26T11:08:04;24.90;73.40
41058;DHT22;66768;48.884;2.258;2023-06-26T11:10:53;24.80;73.50
41058;DHT22;66768;48.884;2.258;2023-06-26T11:13:20;24.90;74.40
41058;DHT22;66768;48.884;2.258;2023-06-26T11:15:49;24.90;74.50
41058;DHT22;66768;48.884;2.258;2023-06-26T11:18:18;24.90;74.00
41058;DHT22;66768;48.884;2.258;2023-06-26T11:20:45;24.90;73.70
41058;DHT22;66768;48.884;2.258;2023-06-26T11:23:12;24.80;73.60
41058;DHT22;66768;48.884;2.258;2023-06-26T11:25:39;24.90;74.50
41058;DHT22;66768;48.884;2.258;2023-06-26T11:28:09;25.00;74.10
41058;DHT22;66768;48.884;2.258;2023-06-26T11:30:36;25.10;73.40
41058;DHT22;66768;48.884;2.258;2023-06-26T11:33:05;25.10;72.90
41058;DHT22;66768;48.884;2.258;2023-06-26T11:35:34;25.10;72.00
41058;DHT22;66768;48.884;2.258;2023-06-26T11:38:03;25.10;71.60
41058;DHT22;66768;48.884;2.258;2023-06-26T11:40:31;25.00;70.30
41058;DHT22;66768;48.884;2.258;2023-06-26T11:42:58;24.80;70.20
41058;DHT22;66768;48.884;2.258;2023-06-26T11:45:28;24.90;71.10
41058;DHT22;66768;48.884;2.258;2023-06-26T11:47:55;25.00;72.10
41058;DHT22;66768;48.884;2.258;2023-06-26T11:50:24;25.00;72.50
41058;DHT22;66768;48.884;2.258;2023-06-26T11:52:55;25.00;73.40
41058;DHT22;66768;48.884;2.258;2023-06-26T11:55:23;25.00;73.80
41058;DHT22;66768;48.884;2.258;2023-06-26T11:57:50;25.00;74.10
41058;DHT22;66768;48.884;2.258;2023-06-26T12:00:18;24.90;73.30
41058;DHT22;66768;48.884;2.258;2023-06-26T12:02:46;25.00;72.90
41058;DHT22;66768;48.884;2.258;2023-06-26T12:05:13;24.90;72.90
41058;DHT22;66768;48.884;2.258;2023-06-26T12:07:41;24.90;72.80
41058;DHT22;66768;48.884;2.258;2023-06-26T12:10:11;24.80;72.60
41058;DHT22;66768;48.884;2.258;2023-06-26T12:12:38;24.70;73.50
41058;DHT22;66768;48.884;2.258;2023-06-26T12:15:07;24.80;74.30
41058;DHT22;66768;48.884;2.258;2023-06-26T12:17:37;24.90;74.60
41058;DHT22;66768;48.884;2.258;2023-06-26T12:20:16;24.70;73.10
41058;DHT22;66768;48.884;2.258;2023-06-26T12:22:43;24.80;73.90
41058;DHT22;66768;48.884;2.258;2023-06-26T12:25:13;24.90;73.70
41058;DHT22;66768;48.884;2.258;2023-06-26T12:27:40;25.00;72.10
41058;DHT22;66768;48.884;2.258;2023-06-26T12:30:07;25.00;70.90
41058;DHT22;66768;48.884;2.258;2023-06-26T12:32:35;25.10;71.10
41058;DHT22;66768;48.884;2.258;2023-06-26T12:35:02;25.20;71.20
41058;DHT22;66768;48.884;2.258;2023-06-26T12:37:29;25.20;71.20
41058;DHT22;66768;48.884;2.258;2023-06-26T12:40:03;25.30;71.20
41058;DHT22;66768;48.884;2.258;2023-06-26T12:42:34;25.20;70.00
41058;DHT22;66768;48.884;2.258;2023-06-26T12:45:10;25.20;70.40
41058;DHT22;66768;48.884;2.258;2023-06-26T12:47:37;25.20;71.30
41058;DHT22;66768;48.884;2.258;2023-06-26T12:50:07;25.00;69.90
41058;DHT22;66768;48.884;2.258;2023-06-26T12:52:34;24.90;70.40
41058;DHT22;66768;48.884;2.258;2023-06-26T12:55:01;24.90;69.90
41058;DHT22;66768;48.884;2.258;2023-06-26T12:57:28;24.90;70.20
41058;DHT22;66768;48.884;2.258;2023-06-26T12:59:57;24.90;70.00
41058;DHT22;66768;48.884;2.258;2023-06-26T13:02:25;25.10;71.00
41058;DHT22;66768;48.884;2.258;2023-06-26T13:04:52;25.20;70.80
41058;DHT22;66768;48.884;2.258;2023-06-26T13:07:18;25.20;72.00
41058;DHT22;66768;48.884;2.258;2023-06-26T13:09:45;25.20;70.60
41058;DHT22;66768;48.884;2.258;2023-06-26T13:12:14;25.20;70.10
41058;DHT22;66768;48.884;2.258;2023-06-26T13:14:40;25.20;69.90
41058;DHT22;66768;48.884;2.258;2023-06-26T13:17:10;25.10;69.90
41058;DHT22;66768;48.884;2.258;2023-06-26T13:19:37;25.10;70.70
41058;DHT22;66768;48.884;2.258;2023-06-26T13:22:05;25.20;70.40
41058;DHT22;66768;48.884;2.258;2023-06-26T13:24:31;25.20;70.20
41058;DHT22;66768;48.884;2.258;2023-06-26T13:26:58;25.10;69.80
41058;DHT22;66768;48.884;2.258;2023-06-26T13:29:25;25.10;70.00
41058;DHT22;66768;48.884;2.258;2023-06-26T13:31:52;25.00;69.00
41058;DHT22;66768;48.884;2.258;2023-06-26T13:34:22;25.00;69.70
41058;DHT22;66768;48.884;2.258;2023-06-26T13:36:49;25.00;69.30
41058;DHT22;66768;48.884;2.258;2023-06-26T13:39:16;25.10;69.50
41058;DHT22;66768;48.884;2.258;2023-06-26T13:41:43;25.00;70.40
41058;DHT22;66768;48.884;2.258;2023-06-26T13:44:10;25.00;69.40
41058;DHT22;66768;48.884;2.258;2023-06-26T13:46:37;25.10;70.00
41058;DHT22;66768;48.884;2.258;2023-06-26T13:49:04;25.10;69.50
41058;DHT22;66768;48.884;2.258;2023-06-26T13:51:32;25.10;69.60
41058;DHT22;66768;48.884;2.258;2023-06-26T13:53:59;25.10;69.10
41058;DHT22;66768;48.884;2.258;2023-06-26T13:56:26;25.10;69.50
41058;DHT22;66768;48.884;2.258;2023-06-26T13:58:56;25.10;69.70
41058;DHT22;66768;48.884;2.258;2023-06-26T14:01:23;25.10;68.10
41058;DHT22;66768;48.884;2.258;2023-06-26T14:03:50;25.10;68.50
41058;DHT22;66768;48.884;2.258;2023-06-26T14:06:17;25.20;68.80
41058;DHT22;66768;48.884;2.258;2023-06-26T14:08:45;25.20;68.70
41058;DHT22;66768;48.884;2.258;2023-06-26T14:11:12;25.20;67.40
41058;DHT22;66768;48.884;2.258;2023-06-26T14:13:41;25.20;67.70
41058;DHT22;66768;48.884;2.258;2023-06-26T14:16:08;25.10;67.40
41058;DHT22;66768;48.884;2.258;2023-06-26T14:18:35;25.10;67.60
41058;DHT22;66768;48.884;2.258;2023-06-26T14:21:02;25.10;67.90
41058;DHT22;66768;48.884;2.258;2023-06-26T14:23:29;25.10;68.20
41058;DHT22;66768;48.884;2.258;2023-06-26T14:25:57;25.10;68.60
41058;DHT22;66768;48.884;2.258;2023-06-26T14:28:24;25.10;68.80
41058;DHT22;66768;48.884;2.258;2023-06-26T14:30:51;25.10;68.40
41058;DHT22;66768;48.884;2.258;2023-06-26T14:33:18;25.00;68.70
41058;DHT22;66768;48.884;2.258;2023-06-26T14:35:45;25.00;69.10
41058;DHT22;66768;48.884;2.258;2023-06-26T14:38:11;25.00;68.60
41058;DHT22;66768;48.884;2.258;2023-06-26T14:40:39;25.00;68.40
41058;DHT22;66768;48.884;2.258;2023-06-26T14:43:07;25.10;67.70
41058;DHT22;66768;48.884;2.258;2023-06-26T14:45:34;25.10;67.80
41058;DHT22;66768;48.884;2.258;2023-06-26T14:48:00;25.10;67.70
41058;DHT22;66768;48.884;2.258;2023-06-26T14:50:27;25.10;68.10
41058;DHT22;66768;48.884;2.258;2023-06-26T14:52:54;25.00;66.70
41058;DHT22;66768;48.884;2.258;2023-06-26T14:55:21;25.00;67.50
41058;DHT22;66768;48.884;2.258;2023-06-26T14:57:48;25.00;68.30
41058;DHT22;66768;48.884;2.258;2023-06-26T15:00:18;25.00;67.90
41058;DHT22;66768;48.884;2.258;2023-06-26T15:02:45;25.00;67.50
41058;DHT22;66768;48.884;2.258;2023-06-26T15:05:12;25.00;67.10
41058;DHT22;66768;48.884;2.258;2023-06-26T15:07:39;24.90;67.90
41058;DHT22;66768;48.884;2.258;2023-06-26T15:10:07;24.80;67.40
41058;DHT22;66768;48.884;2.258;2023-06-26T15:12:35;24.80;67.90
41058;DHT22;66768;48.884;2.258;2023-06-26T15:15:02;24.60;68.10
41058;DHT22;66768;48.884;2.258;2023-06-26T15:17:30;24.60;68.50
41058;DHT22;66768;48.884;2.258;2023-06-26T15:19:57;24.70;68.90
41058;DHT22;66768;48.884;2.258;2023-06-26T15:22:26;24.60;68.50
41058;DHT22;66768;48.884;2.258;2023-06-26T15:24:53;24.60;69.00
41058;DHT22;66768;48.884;2.258;2023-06-26T15:27:20;24.60;69.10
41058;DHT22;66768;48.884;2.258;2023-06-26T15:29:47;24.70;69.40
41058;DHT22;66768;48.884;2.258;2023-06-26T15:32:13;24.80;69.90
41058;DHT22;66768;48.884;2.258;2023-06-26T15:34:42;24.90;68.90